• Join FlightAware (Why Join?)
  • Login
  • US Flag 
12:39AM EDT


 

Airport Tracker/Info


-or-


 

Live Flight TrackerFlight Track Log ✈ ASH3732 ✈ 12-Jul-2013 ✈ KIAD - KMCI

Flight Track Log - Related Links

Times and Time Zones

All times are in EDT time to prevent confusion due to time zone crossing. See the ASH3732 flight status page for this flight to view local times or setup timezone preferences in your user account.

Time Position Orientation Groundspeed Altitude Reporting Facility
EDT Latitude Longitude Course Direction KTS MPH feet Rate Location/Type
08:58AM 38.9500 -77.5167 237° Southwest 179 206 1,400  Level Potomac TRACON
08:59AM 38.9167 -77.5833 237° Southwest 263 303 2,700 1,980 Climbing Potomac TRACON
09:00AM 38.9000 -77.6833 258° West 288 331 5,400 2,700 Climbing Potomac TRACON
09:02AM 38.8558 -77.7856 241° Southwest 285 328 8,800 2,400 Climbing Washington Center
09:03AM 38.8081 -77.8881 239° Southwest 298 343 10,800 1,860 Climbing Washington Center
09:04AM 38.8244 -78.0058 280° West 309 356 12,500 1,920 Climbing Washington Center
09:05AM 38.8428 -78.1289 281° West 329 379 14,700 1,920 Climbing Washington Center
09:06AM 38.8525 -78.2572 276° West 351 404 16,400 1,860 Climbing Washington Center
09:07AM 38.8517 -78.3906 270° West 370 426 18,400 2,040 Climbing Washington Center
09:08AM 38.8506 -78.5211 269° West 370 426 20,600 1,800 Climbing Washington Center
09:09AM 38.8494 -78.6492 269° West 364 419 22,000 1,380 Climbing Washington Center
09:10AM 38.8481 -78.7875 269° West 376 433 23,400 1,140 Climbing Washington Center
09:11AM 38.8442 -78.9261 268° West 389 448 24,400 960 Climbing Washington Center
09:12AM 38.8422 -79.0725 269° West 401 461 25,400 960 Climbing Washington Center
09:13AM 38.8419 -79.2217 270° West 411 473 26,400 960 Climbing Washington Center
09:14AM 38.8372 -79.3708 268° West 417 480 27,400 1,020 Climbing Washington Center
09:15AM 38.8347 -79.5200 269° West 422 486 28,500 960 Climbing Washington Center
09:16AM 38.8342 -79.6611 270° West 422 486 29,400 780 Climbing Washington Center
09:18AM 38.8217 -80.0156 268° West 422 486 31,300 780 Climbing Indianapolis Center
09:19AM 38.8169 -80.1981 268° West 427 491 32,200 720 Climbing Indianapolis Center
09:20AM 38.8125 -80.3506 268° West 427 491 32,900 660 Climbing Indianapolis Center
09:21AM 38.8097 -80.5031 269° West 427 491 33,600 660 Climbing Indianapolis Center
09:22AM 38.8036 -80.6536 267° West 424 488 34,300 660 Climbing Indianapolis Center
09:23AM 38.7992 -80.8036 268° West 423 487 35,000 600 Climbing Indianapolis Center
09:24AM 38.7942 -80.9542 268° West 423 487 35,600 540 Climbing Indianapolis Center
09:25AM 38.7881 -81.1328 268° West 421 484 36,200 480 Climbing Indianapolis Center
09:26AM 38.7828 -81.2822 267° West 423 487 36,700 480 Climbing Indianapolis Center
09:27AM 38.7767 -81.4433 267° West 424 488 37,300 480 Climbing Indianapolis Center
09:29AM 38.7708 -81.5950 267° West 426 490 37,800 300 Climbing Indianapolis Center
09:30AM 38.7656 -81.7547 268° West 423 487 38,000 60 Climbing Indianapolis Center
09:31AM 38.7589 -81.9069 267° West 430 495 38,000  Level Indianapolis Center
09:32AM 38.7522 -82.0625 267° West 437 503 38,000  Level Indianapolis Center
09:33AM 38.7458 -82.2214 267° West 446 513 38,000  Level Indianapolis Center
09:34AM 38.7403 -82.3831 268° West 452 520 38,000  Level Indianapolis Center
09:35AM 38.7339 -82.5456 267° West 456 525 38,000  Level Indianapolis Center
09:36AM 38.7264 -82.7361 267° West 447 514 38,000  Level Indianapolis Center
09:37AM 38.7192 -82.8964 267° West 450 518 38,000  Level Indianapolis Center
09:38AM 38.7125 -83.0567 267° West 451 519 38,000  Level Indianapolis Center
09:39AM 38.7050 -83.2092 266° West 450 518 38,000  Level Indianapolis Center
09:40AM 38.6978 -83.3681 267° West 444 511 38,000  Level Indianapolis Center
09:41AM 38.6878 -83.5572 266° West 450 518 38,000  Level Indianapolis Center
09:42AM 38.6797 -83.7206 266° West 456 525 38,000  Level Indianapolis Center
09:43AM 38.6717 -83.8814 266° West 450 518 38,000  Level Indianapolis Center
09:44AM 38.6625 -84.0436 266° West 451 519 38,000  Level Indianapolis Center
09:45AM 38.6542 -84.2075 266° West 455 524 38,000  Level Indianapolis Center
09:46AM 38.6522 -84.3706 269° West 455 524 38,000  Level Indianapolis Center
09:47AM 38.6636 -84.5422 275° West 452 520 38,000  Level Indianapolis Center
09:48AM 38.6719 -84.7042 274° West 456 525 38,000  Level Indianapolis Center
09:49AM 38.6806 -84.8661 274° West 457 526 38,000  Level Indianapolis Center
09:50AM 38.6914 -85.0294 275° West 461 531 38,000  Level Indianapolis Center
09:51AM 38.7011 -85.2247 274° West 460 529 38,000  Level Indianapolis Center
09:52AM 38.7092 -85.3883 274° West 461 531 38,000  Level Indianapolis Center
09:53AM 38.7169 -85.5519 274° West 462 532 38,000  Level Indianapolis Center
09:54AM 38.7256 -85.7189 274° West 469 540 38,000  Level Indianapolis Center
09:55AM 38.7347 -85.9053 274° West 472 543 38,000  Level Indianapolis Center
09:56AM 38.7419 -86.0725 273° West 472 543 38,000  Level Indianapolis Center
09:57AM 38.7500 -86.2403 274° West 472 543 38,000  Level Indianapolis Center
09:59AM 38.7567 -86.4078 273° West 471 542 38,000  Level Indianapolis Center
10:00AM 38.7642 -86.5753 273° West 472 543 38,000  Level Indianapolis Center
10:01AM 38.7731 -86.7761 273° West 473 544 38,000  Level Indianapolis Center
10:02AM 38.7794 -86.9456 273° West 478 550 38,000  Level Indianapolis Center
10:03AM 38.7867 -87.1125 273° West 474 545 38,000  Level Indianapolis Center
10:04AM 38.7922 -87.2822 272° West 478 550 38,000  Level Indianapolis Center
10:05AM 38.7981 -87.4522 273° West 479 551 38,000  Level Indianapolis Center
10:06AM 38.8033 -87.6219 272° West 478 550 38,000  Level Indianapolis Center
10:07AM 38.8097 -87.8269 272° West 480 552 38,000  Level Indianapolis Center
10:08AM 38.8142 -87.9967 272° West 478 550 38,000  Level Indianapolis Center
10:09AM 38.8189 -88.1653 272° West 476 548 38,000  Level Indianapolis Center
10:10AM 38.8364 -88.3294 278° West 463 533 38,000  Level Indianapolis Center
10:11AM 38.8700 -88.4839 286° West 452 520 38,000  Level Indianapolis Center
10:12AM 38.9033 -88.6386 286° West 449 517 38,000  Level Indianapolis Center
10:13AM 38.9433 -88.8242 286° West 450 518 38,000  Level Indianapolis Center
10:14AM 38.9758 -88.9789 285° West 448 516 38,000  Level Indianapolis Center
10:15AM 39.0083 -89.1331 285° West 446 513 38,000  Level Indianapolis Center
10:16AM 39.0400 -89.2889 285° West 449 517 38,000  Level Indianapolis Center
10:17AM 39.0733 -89.4422 286° West 446 513 38,000  Level Indianapolis Center
10:19AM 39.1256 -89.6983 285° West 448 516 38,000  Level Kansas City Center
10:20AM 39.1567 -89.8525 285° West 448 516 38,000  Level Kansas City Center
10:21AM 39.1881 -90.0078 285° West 446 513 38,000  Level Kansas City Center
10:22AM 39.2200 -90.1622 285° West 447 514 38,000  Level Kansas City Center
10:23AM 39.2497 -90.3169 284° West 449 517 38,000  Level Kansas City Center
10:24AM 39.2794 -90.4725 284° West 450 518 38,000  Level Kansas City Center
10:25AM 39.3106 -90.6272 285° West 449 517 38,000  Level Kansas City Center
10:26AM 39.3453 -90.8139 284° West 449 517 38,000  Level Kansas City Center
10:27AM 39.3756 -90.9700 284° West 450 518 38,000  Level Kansas City Center
10:28AM 39.4058 -91.1256 284° West 450 518 38,000  Level Kansas City Center
10:30AM 39.4653 -91.4389 284° West 451 519 38,000  Level Kansas City Center
10:31AM 39.5000 -91.6306 283° West 454 522 38,000  Level Kansas City Center
10:32AM 39.5283 -91.7878 283° West 456 525 38,000  Level Kansas City Center
10:33AM 39.5561 -91.9467 283° West 455 524 38,000  Level Kansas City Center
10:34AM 39.5872 -92.1053 284° West 456 525 38,000  Level Kansas City Center
10:35AM 39.6286 -92.2553 290° West 448 516 38,000 -540 Level Kansas City Center
10:36AM 39.6836 -92.4361 292° West 449 517 37,000 -1,020 Descending Kansas City Center
10:37AM 39.7306 -92.5872 292° West 451 519 36,000 -1,020 Descending Kansas City Center
10:38AM 39.7811 -92.7375 294° West 454 522 35,000 -1,200 Descending Kansas City Center
10:39AM 39.8311 -92.8919 293° West 459 528 33,600 -1,500 Descending Kansas City Center
10:40AM 39.8628 -93.0567 284° West 486 559 32,000 -1,860 Descending Kansas City Center
10:41AM 39.8336 -93.2275 258° West 496 571 29,800 -3,780 Descending Kansas City Center
10:42AM 39.7725 -93.4267 248° West 498 573 24,200 -5,040 Descending Kansas City Center
10:43AM 39.7219 -93.5869 248° West 490 564 19,400 -4,380 Descending Kansas City Center
10:44AM 39.6775 -93.7292 248° West 432 497 15,200 -3,660 Descending Kansas City Center
10:46AM 39.6314 -93.8681 247° West 385 443 12,000 -1,560 Descending Kansas City Center
10:47AM 39.5781 -93.9803 238° Southwest 384 442 12,000 -180 Level Kansas City Center
10:48AM 39.5156 -94.1131 239° Southwest 387 445 11,700 -840 Descending Kansas City Center
10:49AM 39.4928 -94.2400 257° West 378 435 10,300 -1,140 Descending Kansas City Center
10:50AM 39.4714 -94.3661 258° West 318 366 9,400 -1,500 Descending Kansas City Center
10:51AM 39.4606 -94.4639 262° West 288 331 7,300 -1,800 Descending Kansas City Center
10:52AM 39.4492 -94.5686 262° West 259 298 5,800 -1,260 Descending Kansas City Center
10:53AM 39.4425 -94.6358 263° West 200 230 4,700 -1,440 Descending Kansas City Center
10:54AM 39.4186 -94.6939 242° Southwest 164 189 2,900 -1,440 Descending Kansas City Center
10:55AM 39.3842 -94.7028 191° South 130 150 1,800 -660 Descending Kansas City Center
10:56AM 39.3492 -94.7131 193° South 134 154 1,600 -420 Descending Kansas City Center
10:57AM 39.3103 -94.7239 192° South 133 153 1,000 -600 Descending Kansas City Center
10:59AM 39.2976 -94.7139 171° South  Level Estimated